Time;durP1;ratioP1;P1;durP2;ratioP2;P2;SDS_P1;SDS_P2;PMS_P1;PMS_P2;Temp;Humidity;BMP_temperature;BMP_pressure;BME280_temperature;BME280_humidity;BME280_pressure;Samples;Min_cycle;Max_cycle;Signal;HPM_P1;HPM_P2
2023/09/23 00:00:13;;;;;;;6.07;2.90;;;;;;;;;;4971557;28;20101;-78
2023/09/23 00:02:39;;;;;;;6.63;3.10;;;;;;;;;;4954843;28;20461;-78
2023/09/23 00:05:09;;;;;;;5.88;2.90;;;;;;;;;;4938831;29;20121;-78
2023/09/23 00:07:35;;;;;;;5.35;3.17;;;;;;;;;;4957675;28;20063;-78
2023/09/23 00:10:08;;;;;;;6.38;3.20;;;;;;;;;;4954969;28;20094;-78
2023/09/23 00:12:35;;;;;;;5.45;3.10;;;;;;;;;;4955037;28;20549;-78
2023/09/23 00:15:01;;;;;;;5.32;3.17;;;;;;;;;;4944669;29;20047;-78
2023/09/23 00:17:28;;;;;;;4.82;2.83;;;;;;;;;;4953906;28;20482;-78
2023/09/23 00:19:54;;;;;;;5.93;3.75;;;;;;;;;;4971587;28;20054;-78
2023/09/23 00:22:21;;;;;;;7.55;3.20;;;;;;;;;;4972307;28;20068;-78
2023/09/23 00:24:47;;;;;;;5.10;3.35;;;;;;;;;;4975263;28;20058;-78
2023/09/23 00:27:15;;;;;;;5.28;2.78;;;;;;;;;;4973247;28;20050;-78
2023/09/23 00:29:41;;;;;;;6.93;2.63;;;;;;;;;;4974307;28;20047;-78
2023/09/23 00:32:07;;;;;;;5.63;3.17;;;;;;;;;;4971939;28;20105;-78
2023/09/23 00:34:33;;;;;;;5.68;3.60;;;;;;;;;;4973020;28;20057;-78
2023/09/23 00:36:59;;;;;;;6.28;3.03;;;;;;;;;;4974614;28;21267;-78
2023/09/23 00:39:25;;;;;;;6.18;3.47;;;;;;;;;;4972676;28;20076;-78
2023/09/23 00:41:51;;;;;;;6.53;3.50;;;;;;;;;;4973609;28;20050;-78
2023/09/23 00:44:18;;;;;;;5.85;3.78;;;;;;;;;;4973848;28;20498;-78
2023/09/23 00:46:45;;;;;;;5.20;3.03;;;;;;;;;;4972158;28;20054;-78
2023/09/23 00:49:13;;;;;;;5.55;3.10;;;;;;;;;;4974337;28;20050;-78
2023/09/23 00:51:40;;;;;;;4.72;2.70;;;;;;;;;;4968523;28;20053;-78
2023/09/23 00:54:09;;;;;;;5.53;2.80;;;;;;;;;;4972174;28;20047;-78
2023/09/23 00:56:36;;;;;;;4.88;2.45;;;;;;;;;;4974419;28;20050;-78
2023/09/23 00:59:06;;;;;;;5.18;2.63;;;;;;;;;;4974529;28;20043;-78
2023/09/23 01:01:32;;;;;;;5.50;2.67;;;;;;;;;;4974187;28;20058;-78
2023/09/23 01:03:58;;;;;;;5.15;2.00;;;;;;;;;;4973492;28;20049;-78
2023/09/23 01:06:27;;;;;;;4.95;2.25;;;;;;;;;;4973531;28;20038;-78
2023/09/23 01:08:57;;;;;;;5.10;2.40;;;;;;;;;;4973393;28;20093;-78
2023/09/23 01:11:25;;;;;;;5.50;2.30;;;;;;;;;;4974002;28;20421;-78
2023/09/23 01:13:52;;;;;;;4.95;2.47;;;;;;;;;;4963946;28;20074;-78
2023/09/23 01:16:21;;;;;;;6.03;3.03;;;;;;;;;;4973376;28;20508;-78
2023/09/23 01:18:49;;;;;;;7.18;3.03;;;;;;;;;;4975549;28;20051;-78
2023/09/23 01:21:16;;;;;;;5.85;2.85;;;;;;;;;;4962005;28;20487;-78
2023/09/23 01:23:44;;;;;;;5.90;3.22;;;;;;;;;;4973381;28;20138;-78
2023/09/23 01:26:13;;;;;;;5.43;3.38;;;;;;;;;;4980723;28;20484;-78
2023/09/23 01:28:39;;;;;;;6.07;3.60;;;;;;;;;;4972674;28;20043;-78
2023/09/23 01:31:06;;;;;;;7.75;4.10;;;;;;;;;;4981509;28;20081;-78
2023/09/23 01:33:34;;;;;;;7.55;4.22;;;;;;;;;;4982535;28;20053;-78
2023/09/23 01:36:03;;;;;;;7.00;3.53;;;;;;;;;;4971604;28;20055;-78
2023/09/23 01:38:33;;;;;;;7.07;3.83;;;;;;;;;;4989970;28;20050;-78
2023/09/23 01:41:03;;;;;;;6.18;3.75;;;;;;;;;;4992137;28;20109;-78
2023/09/23 01:43:30;;;;;;;6.22;3.55;;;;;;;;;;4977120;28;20042;-78
2023/09/23 01:46:02;;;;;;;5.55;3.65;;;;;;;;;;4986100;28;20043;-78
2023/09/23 01:48:29;;;;;;;5.47;3.00;;;;;;;;;;4976513;28;20137;-78
2023/09/23 01:50:58;;;;;;;5.97;3.00;;;;;;;;;;4973403;28;20122;-78
2023/09/23 01:53:25;;;;;;;5.03;2.80;;;;;;;;;;4972331;28;20138;-78
2023/09/23 01:55:51;;;;;;;6.70;3.20;;;;;;;;;;4977183;28;20101;-78
2023/09/23 01:58:17;;;;;;;5.82;2.80;;;;;;;;;;4992615;28;20382;-78
2023/09/23 02:00:44;;;;;;;5.57;2.65;;;;;;;;;;4992153;28;20046;-78
2023/09/23 02:03:10;;;;;;;5.03;2.20;;;;;;;;;;4992335;28;20373;-78
2023/09/23 02:05:36;;;;;;;5.95;2.70;;;;;;;;;;4992603;28;20050;-78
2023/09/23 02:08:03;;;;;;;4.80;2.03;;;;;;;;;;4983029;28;20043;-78
2023/09/23 02:10:29;;;;;;;4.78;2.35;;;;;;;;;;4973682;28;20039;-78
2023/09/23 02:12:57;;;;;;;4.80;2.00;;;;;;;;;;4980158;28;20121;-78
2023/09/23 02:15:23;;;;;;;5.05;2.00;;;;;;;;;;4973396;28;20054;-78
2023/09/23 02:17:50;;;;;;;3.33;1.55;;;;;;;;;;4983711;28;20069;-78
2023/09/23 02:20:21;;;;;;;4.00;1.73;;;;;;;;;;4960513;28;20171;-78
2023/09/23 02:22:47;;;;;;;;;;;;;;;;;;4954448;28;20363;-78
2023/09/23 02:25:14;;;;;;;3.90;1.70;;;;;;;;;;4954399;28;19922;-78
2023/09/23 02:27:41;;;;;;;5.85;1.80;;;;;;;;;;4957313;28;20043;-78
2023/09/23 02:30:11;;;;;;;5.80;2.30;;;;;;;;;;4956914;28;20040;-78
2023/09/23 02:32:40;;;;;;;5.28;2.30;;;;;;;;;;4956653;28;20061;-78
2023/09/23 02:35:11;;;;;;;4.50;2.30;;;;;;;;;;4956358;28;20584;-78
2023/09/23 02:37:37;;;;;;;5.40;2.50;;;;;;;;;;4957585;28;20047;-78
2023/09/23 02:40:05;;;;;;;6.15;2.92;;;;;;;;;;4958505;28;20043;-78
2023/09/23 02:42:32;;;;;;;5.72;3.13;;;;;;;;;;4956918;28;20110;-78
2023/09/23 02:44:58;;;;;;;6.55;3.70;;;;;;;;;;4955729;28;20501;-78
2023/09/23 02:47:24;;;;;;;7.90;3.80;;;;;;;;;;4936891;29;20051;-78
2023/09/23 02:49:50;;;;;;;6.47;4.03;;;;;;;;;;4956129;28;20055;-78
2023/09/23 02:52:16;;;;;;;5.47;3.00;;;;;;;;;;4957284;29;20039;-78
2023/09/23 02:54:42;;;;;;;5.63;3.42;;;;;;;;;;4956482;29;20105;-78
2023/09/23 02:57:12;;;;;;;5.53;3.17;;;;;;;;;;4956765;29;20058;-78
2023/09/23 02:59:41;;;;;;;5.43;3.10;;;;;;;;;;4957068;29;20062;-78
2023/09/23 03:02:08;;;;;;;5.70;3.35;;;;;;;;;;4972038;28;20047;-78
2023/09/23 03:04:35;;;;;;;6.82;3.03;;;;;;;;;;4957128;28;20070;-78
2023/09/23 03:07:04;;;;;;;7.13;3.60;;;;;;;;;;4957360;29;20047;-78
2023/09/23 03:09:33;;;;;;;6.82;3.88;;;;;;;;;;4956967;29;20058;-78
2023/09/23 03:12:00;;;;;;;6.47;3.95;;;;;;;;;;4956942;29;20073;-78
2023/09/23 03:14:38;;;;;;;5.50;3.72;;;;;;;;;;4955337;29;20110;-78
2023/09/23 03:17:04;;;;;;;8.13;4.70;;;;;;;;;;4956566;28;20043;-78
2023/09/23 03:19:34;;;;;;;7.95;4.43;;;;;;;;;;4955555;28;20070;-78
2023/09/23 03:22:00;;;;;;;8.07;4.93;;;;;;;;;;4934200;29;20433;-78
2023/09/23 03:24:28;;;;;;;7.95;4.60;;;;;;;;;;4956354;28;20047;-78
2023/09/23 03:26:55;;;;;;;7.53;4.90;;;;;;;;;;4955350;28;20047;-78
2023/09/23 03:29:28;;;;;;;7.07;5.32;;;;;;;;;;4956542;29;20557;-78
2023/09/23 03:31:55;;;;;;;7.18;5.10;;;;;;;;;;4955346;28;20047;-78
2023/09/23 03:34:22;;;;;;;8.13;4.95;;;;;;;;;;4952554;28;20043;-78
2023/09/23 03:36:48;;;;;;;7.70;5.88;;;;;;;;;;4954524;28;20055;-78
2023/09/23 03:39:17;;;;;;;7.93;6.00;;;;;;;;;;4956236;29;20058;-78
2023/09/23 03:41:49;;;;;;;8.20;5.60;;;;;;;;;;4956291;28;20058;-78
2023/09/23 03:44:15;;;;;;;9.13;6.88;;;;;;;;;;4955537;28;20043;-78
2023/09/23 03:46:52;;;;;;;8.55;5.40;;;;;;;;;;4956067;29;20058;-78
2023/09/23 03:49:18;;;;;;;9.10;6.10;;;;;;;;;;4955020;28;20043;-78
2023/09/23 03:51:44;;;;;;;8.48;6.30;;;;;;;;;;4956264;28;20102;-78
2023/09/23 03:54:11;;;;;;;10.20;6.88;;;;;;;;;;4955379;28;20555;-78
2023/09/23 03:56:40;;;;;;;10.68;6.85;;;;;;;;;;4954569;28;20425;-78
2023/09/23 03:59:06;;;;;;;9.40;7.22;;;;;;;;;;4962681;28;20497;-78
2023/09/23 04:01:33;;;;;;;11.60;8.02;;;;;;;;;;4959522;28;20047;-78
2023/09/23 04:04:01;;;;;;;11.45;7.80;;;;;;;;;;4955336;28;20143;-78
2023/09/23 04:06:28;;;;;;;10.02;7.80;;;;;;;;;;4953731;28;20055;-78
2023/09/23 04:08:55;;;;;;;10.35;8.40;;;;;;;;;;4940333;29;20047;-78
2023/09/23 04:11:21;;;;;;;12.85;8.48;;;;;;;;;;4953918;28;20054;-78
2023/09/23 04:13:47;;;;;;;10.82;8.40;;;;;;;;;;4954017;28;20490;-78
2023/09/23 04:16:13;;;;;;;12.43;8.85;;;;;;;;;;4953719;28;20074;-78
2023/09/23 04:18:42;;;;;;;11.65;8.65;;;;;;;;;;4957524;28;20047;-78
2023/09/23 04:21:09;;;;;;;10.18;8.43;;;;;;;;;;4979990;28;20416;-78
2023/09/23 04:23:35;;;;;;;12.52;9.52;;;;;;;;;;4967058;28;20054;-78
2023/09/23 04:26:03;;;;;;;14.00;11.38;;;;;;;;;;4973151;28;20054;-78
2023/09/23 04:28:29;;;;;;;12.95;10.55;;;;;;;;;;4974116;28;20425;-78
2023/09/23 04:30:57;;;;;;;14.88;11.27;;;;;;;;;;4950907;28;20477;-78
2023/09/23 04:33:27;;;;;;;12.82;9.90;;;;;;;;;;4973942;28;20050;-78
2023/09/23 04:35:58;;;;;;;12.80;10.05;;;;;;;;;;4976842;28;20122;-78
2023/09/23 04:38:25;;;;;;;14.05;11.45;;;;;;;;;;4986191;28;20130;-78
2023/09/23 04:40:51;;;;;;;12.30;10.10;;;;;;;;;;4953248;28;20066;-78
2023/09/23 04:43:18;;;;;;;13.55;11.35;;;;;;;;;;4972343;28;20421;-78
2023/09/23 04:45:45;;;;;;;14.48;12.82;;;;;;;;;;4955829;29;20050;-78
2023/09/23 04:48:11;;;;;;;15.98;13.27;;;;;;;;;;4988774;28;20046;-78
2023/09/23 04:50:39;;;;;;;14.77;12.85;;;;;;;;;;4973070;28;20492;-78
2023/09/23 04:53:07;;;;;;;16.80;12.32;;;;;;;;;;4965233;28;20049;-78
2023/09/23 04:55:33;;;;;;;15.23;13.38;;;;;;;;;;4974459;28;20121;-78
2023/09/23 04:57:59;;;;;;;16.00;12.50;;;;;;;;;;4973109;28;20417;-78
2023/09/23 05:00:26;;;;;;;16.52;13.10;;;;;;;;;;4974893;28;20130;-78
2023/09/23 05:02:53;;;;;;;15.63;13.30;;;;;;;;;;4982027;28;20039;-77
2023/09/23 05:05:20;;;;;;;15.23;13.55;;;;;;;;;;4956067;28;20054;-78
2023/09/23 05:07:46;;;;;;;15.10;13.40;;;;;;;;;;4986965;28;20054;-78
2023/09/23 05:10:12;;;;;;;15.68;13.88;;;;;;;;;;4981328;28;20042;-77
2023/09/23 05:12:40;;;;;;;14.43;12.85;;;;;;;;;;4972178;28;20050;-78
2023/09/23 05:15:09;;;;;;;15.93;13.93;;;;;;;;;;4973897;28;20058;-77
2023/09/23 05:17:36;;;;;;;14.65;13.02;;;;;;;;;;4966371;28;20046;-77
2023/09/23 05:20:11;;;;;;;16.67;13.15;;;;;;;;;;4970327;28;20416;-77
2023/09/23 05:22:38;;;;;;;16.38;13.73;;;;;;;;;;4961405;28;20736;-77
2023/09/23 05:25:05;;;;;;;17.80;13.82;;;;;;;;;;4971377;28;20401;-77
2023/09/23 05:27:33;;;;;;;17.88;14.50;;;;;;;;;;4973303;28;20078;-77
2023/09/23 05:29:59;;;;;;;20.02;14.52;;;;;;;;;;4968874;28;20046;-78
2023/09/23 05:32:25;;;;;;;19.58;15.65;;;;;;;;;;4970591;28;20057;-78
2023/09/23 05:34:53;;;;;;;17.67;14.77;;;;;;;;;;4972484;28;20057;-78
2023/09/23 05:37:19;;;;;;;18.67;15.40;;;;;;;;;;4973191;28;20039;-78
2023/09/23 05:39:46;;;;;;;18.15;15.18;;;;;;;;;;4971695;28;20055;-77
2023/09/23 05:42:17;;;;;;;19.77;16.63;;;;;;;;;;4972372;28;20046;-77
2023/09/23 05:44:44;;;;;;;19.65;16.10;;;;;;;;;;4972480;28;20173;-78
2023/09/23 05:47:10;;;;;;;21.08;17.60;;;;;;;;;;4968814;28;20490;-78
2023/09/23 05:49:36;;;;;;;23.23;18.65;;;;;;;;;;4960904;28;20077;-77
2023/09/23 05:52:03;;;;;;;26.50;19.45;;;;;;;;;;4963733;28;20081;-77
2023/09/23 05:54:29;;;;;;;24.70;18.83;;;;;;;;;;4965899;28;20039;-78
2023/09/23 05:56:55;;;;;;;23.48;17.83;;;;;;;;;;4984655;28;20053;-78
2023/09/23 05:59:21;;;;;;;25.65;19.52;;;;;;;;;;4977141;28;20043;-78
2023/09/23 06:01:47;;;;;;;24.80;21.13;;;;;;;;;;4977100;28;20050;-77
2023/09/23 06:04:13;;;;;;;26.17;21.52;;;;;;;;;;4975656;28;20042;-78
2023/09/23 06:06:39;;;;;;;30.02;23.50;;;;;;;;;;4976332;28;20051;-78
2023/09/23 06:09:06;;;;;;;30.95;23.85;;;;;;;;;;4974502;28;20054;-78
2023/09/23 06:11:33;;;;;;;29.52;24.23;;;;;;;;;;4974989;28;20038;-78
2023/09/23 06:13:59;;;;;;;28.73;24.38;;;;;;;;;;4974828;28;20478;-78
2023/09/23 06:16:25;;;;;;;27.40;23.52;;;;;;;;;;4973448;28;20105;-78
2023/09/23 06:18:51;;;;;;;28.67;24.17;;;;;;;;;;4971731;28;20517;-78
2023/09/23 06:21:17;;;;;;;28.67;24.40;;;;;;;;;;4970105;28;20043;-78
2023/09/23 06:23:44;;;;;;;30.42;26.30;;;;;;;;;;4966868;28;20054;-77
2023/09/23 06:26:10;;;;;;;31.83;27.27;;;;;;;;;;4975023;28;20082;-78
2023/09/23 06:28:37;;;;;;;31.92;27.08;;;;;;;;;;4976566;28;20078;-78
2023/09/23 06:31:03;;;;;;;31.00;25.45;;;;;;;;;;4957041;28;20125;-78
2023/09/23 06:33:30;;;;;;;34.55;28.17;;;;;;;;;;4975268;28;20073;-78
2023/09/23 06:35:56;;;;;;;30.23;24.98;;;;;;;;;;4975200;28;20039;-77
2023/09/23 06:38:22;;;;;;;31.27;26.27;;;;;;;;;;4975891;28;20090;-78
2023/09/23 06:40:48;;;;;;;35.22;27.83;;;;;;;;;;4973678;28;20062;-78
2023/09/23 06:43:14;;;;;;;33.42;27.33;;;;;;;;;;4972605;28;20516;-78
2023/09/23 06:45:40;;;;;;;34.28;28.40;;;;;;;;;;4975292;28;20122;-78
2023/09/23 06:48:06;;;;;;;33.42;28.35;;;;;;;;;;4974566;28;20058;-78
2023/09/23 06:50:32;;;;;;;29.42;25.40;;;;;;;;;;4975389;28;20055;-77
2023/09/23 06:52:58;;;;;;;33.78;28.55;;;;;;;;;;4975245;28;20053;-78
2023/09/23 06:55:25;;;;;;;32.55;27.63;;;;;;;;;;4975151;28;20117;-78
2023/09/23 06:57:51;;;;;;;32.13;27.40;;;;;;;;;;4975438;28;20415;-78
2023/09/23 07:00:18;;;;;;;32.92;27.90;;;;;;;;;;4974297;28;20082;-77
2023/09/23 07:02:44;;;;;;;30.17;26.95;;;;;;;;;;4975250;28;20078;-78
2023/09/23 07:05:10;;;;;;;31.92;26.77;;;;;;;;;;4975606;28;20058;-78
2023/09/23 07:07:37;;;;;;;30.60;26.50;;;;;;;;;;4974610;28;20129;-78
2023/09/23 07:10:04;;;;;;;27.42;24.17;;;;;;;;;;4958384;28;20081;-78
2023/09/23 07:12:30;;;;;;;30.00;26.15;;;;;;;;;;4972673;28;20055;-78
2023/09/23 07:14:56;;;;;;;29.15;25.88;;;;;;;;;;4974149;28;20091;-78
2023/09/23 07:17:22;;;;;;;30.70;25.92;;;;;;;;;;4975174;28;20050;-78
2023/09/23 07:19:48;;;;;;;30.65;27.02;;;;;;;;;;4973614;28;20134;-78
2023/09/23 07:22:14;;;;;;;29.17;24.85;;;;;;;;;;4974339;28;20054;-78
2023/09/23 07:24:40;;;;;;;27.02;24.17;;;;;;;;;;4974255;28;20062;-78
2023/09/23 07:27:07;;;;;;;28.15;25.15;;;;;;;;;;4965925;28;20130;-78
2023/09/23 07:29:33;;;;;;;27.77;24.58;;;;;;;;;;4956020;29;20058;-78
2023/09/23 07:31:59;;;;;;;29.38;25.20;;;;;;;;;;4961512;28;20061;-79
2023/09/23 07:34:25;;;;;;;29.85;22.90;;;;;;;;;;4963077;28;20074;-78
2023/09/23 07:36:51;;;;;;;27.15;22.75;;;;;;;;;;4975188;28;20050;-78
2023/09/23 07:39:17;;;;;;;24.92;22.35;;;;;;;;;;4975105;28;20126;-78
2023/09/23 07:41:43;;;;;;;26.25;22.80;;;;;;;;;;4974406;28;20129;-78
2023/09/23 07:44:11;;;;;;;23.58;20.85;;;;;;;;;;4972763;28;20046;-78
2023/09/23 07:46:37;;;;;;;23.90;21.30;;;;;;;;;;4973279;28;20560;-78
2023/09/23 07:49:03;;;;;;;26.50;22.42;;;;;;;;;;4974318;28;20126;-78
2023/09/23 07:51:30;;;;;;;24.63;22.02;;;;;;;;;;4978833;28;20472;-78
2023/09/23 07:53:56;;;;;;;25.23;22.48;;;;;;;;;;4970707;28;20090;-78
2023/09/23 07:56:22;;;;;;;24.75;22.05;;;;;;;;;;4972637;28;20059;-78
2023/09/23 07:58:48;;;;;;;24.58;21.63;;;;;;;;;;4973462;28;20587;-78
2023/09/23 08:01:14;;;;;;;24.75;21.08;;;;;;;;;;4967137;28;20065;-78
2023/09/23 08:03:40;;;;;;;24.35;21.63;;;;;;;;;;4970691;28;20057;-78
2023/09/23 08:06:07;;;;;;;24.52;21.65;;;;;;;;;;4972737;28;20066;-78
2023/09/23 08:08:33;;;;;;;23.85;20.92;;;;;;;;;;4974124;28;20109;-78
2023/09/23 08:10:59;;;;;;;23.17;20.17;;;;;;;;;;4971978;28;20093;-78
2023/09/23 08:13:26;;;;;;;23.60;21.10;;;;;;;;;;4974328;28;20050;-77
2023/09/23 08:15:57;;;;;;;22.33;19.75;;;;;;;;;;4959496;28;20057;-78
2023/09/23 08:18:23;;;;;;;23.08;20.52;;;;;;;;;;4973787;28;20051;-78
2023/09/23 08:20:56;;;;;;;21.98;19.67;;;;;;;;;;4974073;28;20142;-78
2023/09/23 08:23:22;;;;;;;21.55;19.25;;;;;;;;;;4973230;28;20121;-78
2023/09/23 08:25:48;;;;;;;21.77;18.95;;;;;;;;;;4971118;28;20057;-78
2023/09/23 08:28:15;;;;;;;21.42;19.20;;;;;;;;;;4969014;28;20090;-76
2023/09/23 08:30:44;;;;;;;21.10;17.85;;;;;;;;;;4966380;28;20058;-78
2023/09/23 08:33:12;;;;;;;23.15;18.05;;;;;;;;;;4965510;28;20047;-78
2023/09/23 08:35:38;;;;;;;20.65;18.35;;;;;;;;;;4974126;28;20054;-78
2023/09/23 08:38:04;;;;;;;20.13;17.58;;;;;;;;;;4964938;28;20050;-78
2023/09/23 08:40:38;;;;;;;18.88;16.98;;;;;;;;;;4966903;28;20410;-78
2023/09/23 08:43:05;;;;;;;19.63;17.40;;;;;;;;;;4972003;28;20050;-77
2023/09/23 08:45:32;;;;;;;19.23;17.13;;;;;;;;;;4965766;28;20512;-78
2023/09/23 08:47:58;;;;;;;18.77;16.77;;;;;;;;;;4971786;28;20362;-78
2023/09/23 08:50:25;;;;;;;17.65;15.82;;;;;;;;;;4970645;28;20051;-77
2023/09/23 08:52:52;;;;;;;17.05;15.13;;;;;;;;;;4965514;28;20046;-78
2023/09/23 08:55:19;;;;;;;17.73;15.40;;;;;;;;;;4967982;28;20051;-78
2023/09/23 08:57:45;;;;;;;17.55;15.65;;;;;;;;;;4970879;28;20058;-78
2023/09/23 09:00:13;;;;;;;16.77;13.90;;;;;;;;;;4969825;28;20106;-78
2023/09/23 09:02:39;;;;;;;15.52;13.65;;;;;;;;;;4969368;28;20580;-79
2023/09/23 09:05:05;;;;;;;17.42;13.65;;;;;;;;;;4967656;28;20825;-78
2023/09/23 09:07:35;;;;;;;16.70;14.55;;;;;;;;;;4970301;28;20053;-77
2023/09/23 09:10:02;;;;;;;19.15;14.23;;;;;;;;;;4972485;28;20053;-78
2023/09/23 09:12:28;;;;;;;16.60;14.05;;;;;;;;;;4973699;28;20059;-77
2023/09/23 09:14:55;;;;;;;19.60;12.95;;;;;;;;;;4972389;28;20350;-78
2023/09/23 09:17:21;;;;;;;16.85;13.15;;;;;;;;;;4971932;28;20078;-78
2023/09/23 09:19:49;;;;;;;22.48;13.65;;;;;;;;;;4971676;28;20066;-78
2023/09/23 09:22:16;;;;;;;13.80;12.40;;;;;;;;;;4967986;28;20493;-79
2023/09/23 09:24:42;;;;;;;15.05;12.45;;;;;;;;;;4972747;28;20055;-77
2023/09/23 09:27:12;;;;;;;15.75;14.15;;;;;;;;;;4972938;28;20462;-77
2023/09/23 09:29:40;;;;;;;18.83;12.60;;;;;;;;;;4985289;28;20043;-78
2023/09/23 09:32:08;;;;;;;14.48;12.75;;;;;;;;;;4970548;28;20104;-78
2023/09/23 09:34:41;;;;;;;14.38;12.98;;;;;;;;;;4969039;28;20055;-78
2023/09/23 09:37:08;;;;;;;16.63;12.55;;;;;;;;;;4968196;28;20038;-78
2023/09/23 09:39:36;;;;;;;14.90;12.77;;;;;;;;;;4972930;28;20047;-78
2023/09/23 09:42:03;;;;;;;12.95;10.75;;;;;;;;;;4971416;28;20500;-78
2023/09/23 09:44:29;;;;;;;13.38;11.30;;;;;;;;;;4971703;28;20488;-78
2023/09/23 09:46:56;;;;;;;15.85;11.15;;;;;;;;;;4972259;28;20117;-78
2023/09/23 09:49:23;;;;;;;12.60;11.13;;;;;;;;;;4972236;28;20062;-79
2023/09/23 09:51:49;;;;;;;13.15;10.82;;;;;;;;;;4971219;28;20043;-78
2023/09/23 09:54:20;;;;;;;11.90;9.73;;;;;;;;;;4969271;28;20054;-78
2023/09/23 09:56:48;;;;;;;12.93;10.60;;;;;;;;;;4972930;28;20051;-78
2023/09/23 09:59:23;;;;;;;14.52;10.45;;;;;;;;;;4972890;28;20047;-78
2023/09/23 10:01:52;;;;;;;11.25;9.40;;;;;;;;;;4962446;28;20047;-78
2023/09/23 10:04:21;;;;;;;13.40;10.60;;;;;;;;;;4972915;28;20050;-78
2023/09/23 10:06:53;;;;;;;11.77;9.05;;;;;;;;;;4973419;28;20047;-78
2023/09/23 10:09:25;;;;;;;10.70;7.95;;;;;;;;;;4972947;28;20046;-78
2023/09/23 10:11:55;;;;;;;9.98;6.95;;;;;;;;;;4973284;28;20086;-78
2023/09/23 10:14:22;;;;;;;12.30;7.47;;;;;;;;;;4972584;28;20047;-78
2023/09/23 10:16:52;;;;;;;9.40;7.03;;;;;;;;;;4972170;28;20302;-78
2023/09/23 10:19:28;;;;;;;9.63;6.55;;;;;;;;;;4969749;28;20051;-78
2023/09/23 10:22:03;;;;;;;10.15;6.38;;;;;;;;;;4953685;28;20050;-79
2023/09/23 10:24:33;;;;;;;11.65;6.88;;;;;;;;;;4937378;28;20050;-79
2023/09/23 10:27:04;;;;;;;13.68;6.28;;;;;;;;;;4954014;28;20508;-78
2023/09/23 10:29:41;;;;;;;11.90;6.80;;;;;;;;;;4934513;29;20110;-78
2023/09/23 10:32:16;;;;;;;10.57;7.68;;;;;;;;;;4953476;28;20518;-78
2023/09/23 10:34:49;;;;;;;12.73;6.90;;;;;;;;;;4935673;29;20043;-78
2023/09/23 10:37:32;;;;;;;10.55;6.32;;;;;;;;;;4953677;28;20127;-78
2023/09/23 10:40:34;;;;;;;11.82;5.78;;;;;;;;;;4953872;29;20127;-77
2023/09/23 10:42:54;;;;;;;8.40;5.32;;;;;;;;;;4933450;29;20047;-78
2023/09/23 10:45:20;;;;;;;10.15;5.47;;;;;;;;;;4953700;28;20620;-79
2023/09/23 10:47:46;;;;;;;8.85;4.88;;;;;;;;;;4939777;29;20051;-78
2023/09/23 10:50:13;;;;;;;10.60;5.30;;;;;;;;;;4956296;29;20047;-79
2023/09/23 10:52:39;;;;;;;9.10;5.18;;;;;;;;;;4962346;28;20054;-78
2023/09/23 10:55:09;;;;;;;9.55;4.65;;;;;;;;;;4962887;28;20055;-78
2023/09/23 10:57:36;;;;;;;9.80;4.60;;;;;;;;;;4924068;29;20151;-78
2023/09/23 11:00:07;;;;;;;8.20;4.00;;;;;;;;;;4956191;29;20055;-78
2023/09/23 11:02:33;;;;;;;;;;;;;;;;;;4957823;28;20062;-79
2023/09/23 11:04:59;;;;;;;9.98;4.55;;;;;;;;;;4956934;28;19922;-79
2023/09/23 11:07:26;;;;;;;8.88;4.20;;;;;;;;;;4966886;28;20039;-79
2023/09/23 11:09:53;;;;;;;6.93;4.20;;;;;;;;;;4957011;28;20047;-79
2023/09/23 11:12:19;;;;;;;8.32;4.10;;;;;;;;;;4920392;29;20479;-79
2023/09/23 11:14:47;;;;;;;12.70;4.28;;;;;;;;;;4941198;29;20047;-79
2023/09/23 11:17:26;;;;;;;7.88;4.22;;;;;;;;;;4961051;28;20477;-79
2023/09/23 11:19:55;;;;;;;8.73;4.35;;;;;;;;;;4966058;28;20054;-78
2023/09/23 11:22:27;;;;;;;9.65;3.85;;;;;;;;;;4973663;28;20090;-79
2023/09/23 11:24:54;;;;;;;9.20;3.42;;;;;;;;;;4973557;28;20042;-78
2023/09/23 11:27:21;;;;;;;7.05;3.17;;;;;;;;;;4974130;28;20058;-79
2023/09/23 11:29:48;;;;;;;8.15;3.38;;;;;;;;;;4975244;28;20046;-79
2023/09/23 11:32:14;;;;;;;8.70;2.92;;;;;;;;;;4974590;28;20307;-78
2023/09/23 11:34:40;;;;;;;10.93;3.10;;;;;;;;;;4974200;28;20053;-78
2023/09/23 11:37:06;;;;;;;10.38;3.28;;;;;;;;;;4975570;28;20047;-78
2023/09/23 11:39:35;;;;;;;8.20;2.63;;;;;;;;;;4958023;28;20540;-78
2023/09/23 11:42:01;;;;;;;8.55;2.63;;;;;;;;;;4975383;28;20059;-78
2023/09/23 11:44:28;;;;;;;6.43;2.63;;;;;;;;;;4973446;28;20051;-79
2023/09/23 11:46:54;;;;;;;7.80;2.88;;;;;;;;;;4975269;28;20075;-77
2023/09/23 11:49:20;;;;;;;8.80;2.85;;;;;;;;;;4974322;28;20094;-78
2023/09/23 11:51:47;;;;;;;6.75;3.00;;;;;;;;;;4975119;28;20055;-79
2023/09/23 11:54:13;;;;;;;8.65;2.63;;;;;;;;;;4974857;28;20099;-79
2023/09/23 11:56:39;;;;;;;7.32;2.45;;;;;;;;;;4975720;28;20440;-79
2023/09/23 11:59:05;;;;;;;7.78;3.08;;;;;;;;;;4975301;28;20051;-78
2023/09/23 12:01:32;;;;;;;7.47;2.97;;;;;;;;;;4975042;28;20046;-78
2023/09/23 12:03:58;;;;;;;6.75;2.72;;;;;;;;;;4973193;28;20140;-77
2023/09/23 12:06:25;;;;;;;6.60;2.65;;;;;;;;;;4975054;28;20124;-78
2023/09/23 12:08:51;;;;;;;9.45;3.10;;;;;;;;;;4973741;28;20051;-78
2023/09/23 12:11:19;;;;;;;8.45;3.47;;;;;;;;;;4975101;28;20462;-78
2023/09/23 12:13:45;;;;;;;10.40;3.95;;;;;;;;;;4975331;28;20102;-78
2023/09/23 12:16:12;;;;;;;7.85;3.20;;;;;;;;;;4974527;28;20114;-78
2023/09/23 12:18:38;;;;;;;7.50;3.15;;;;;;;;;;4972343;28;20081;-78
2023/09/23 12:21:05;;;;;;;6.93;2.88;;;;;;;;;;4973419;28;20054;-78
2023/09/23 12:23:32;;;;;;;7.57;2.72;;;;;;;;;;4975288;28;20101;-78
2023/09/23 12:25:58;;;;;;;7.68;2.60;;;;;;;;;;4973040;28;20051;-78
2023/09/23 12:28:24;;;;;;;8.18;2.90;;;;;;;;;;4974798;28;20347;-78
2023/09/23 12:30:50;;;;;;;7.47;2.40;;;;;;;;;;4975331;28;20043;-78
2023/09/23 12:33:16;;;;;;;6.28;2.40;;;;;;;;;;4972459;28;20038;-78
2023/09/23 12:35:43;;;;;;;6.97;2.55;;;;;;;;;;4973976;28;20047;-78
2023/09/23 12:38:10;;;;;;;7.47;2.58;;;;;;;;;;4973729;28;20136;-78
2023/09/23 12:40:37;;;;;;;5.75;1.88;;;;;;;;;;4973606;28;20055;-78
2023/09/23 12:43:03;;;;;;;6.03;2.10;;;;;;;;;;4973727;28;20050;-78
2023/09/23 12:45:30;;;;;;;6.32;2.25;;;;;;;;;;4972864;28;20046;-78
2023/09/23 12:47:56;;;;;;;6.88;2.08;;;;;;;;;;4966273;28;20589;-78
2023/09/23 12:50:22;;;;;;;6.07;1.85;;;;;;;;;;4974499;28;20413;-78
2023/09/23 12:52:48;;;;;;;5.55;1.50;;;;;;;;;;4974725;28;20445;-78
2023/09/23 12:55:14;;;;;;;4.95;1.40;;;;;;;;;;4975255;28;20047;-79
2023/09/23 12:57:40;;;;;;;4.85;1.40;;;;;;;;;;4974624;28;20390;-77
2023/09/23 13:00:07;;;;;;;3.92;1.20;;;;;;;;;;4974354;28;20075;-78
2023/09/23 13:02:34;;;;;;;5.05;1.20;;;;;;;;;;4971025;28;20047;-77
2023/09/23 13:05:00;;;;;;;5.25;1.50;;;;;;;;;;4972294;28;20058;-77
2023/09/23 13:07:26;;;;;;;8.07;1.40;;;;;;;;;;4973798;28;20113;-77
2023/09/23 13:09:52;;;;;;;6.80;1.65;;;;;;;;;;4970179;28;20054;-77
2023/09/23 13:12:18;;;;;;;6.65;2.05;;;;;;;;;;4974269;28;20043;-79
2023/09/23 13:14:44;;;;;;;5.20;1.60;;;;;;;;;;4974409;28;20043;-78
2023/09/23 13:17:11;;;;;;;6.28;1.40;;;;;;;;;;4973740;28;20050;-78
2023/09/23 13:19:37;;;;;;;4.05;1.05;;;;;;;;;;4972787;28;20141;-77
2023/09/23 13:22:03;;;;;;;4.32;1.25;;;;;;;;;;4972376;28;20047;-77
2023/09/23 13:24:31;;;;;;;4.55;0.90;;;;;;;;;;4973017;28;20043;-78
2023/09/23 13:26:57;;;;;;;6.00;1.15;;;;;;;;;;4972896;28;20456;-77
2023/09/23 13:29:23;;;;;;;4.35;1.00;;;;;;;;;;4971513;28;20046;-76
2023/09/23 13:31:49;;;;;;;4.53;0.93;;;;;;;;;;4973134;28;20082;-76
2023/09/23 13:34:15;;;;;;;3.72;1.00;;;;;;;;;;4954686;28;20043;-77
2023/09/23 13:36:41;;;;;;;4.38;1.10;;;;;;;;;;4972294;28;20042;-77
2023/09/23 13:39:09;;;;;;;5.53;1.30;;;;;;;;;;4973443;28;20505;-77
2023/09/23 13:41:35;;;;;;;3.90;1.30;;;;;;;;;;4971765;28;20047;-77
2023/09/23 13:44:01;;;;;;;5.78;1.30;;;;;;;;;;4970187;28;20102;-76
2023/09/23 13:46:27;;;;;;;5.22;1.48;;;;;;;;;;4968250;28;20050;-76
2023/09/23 13:48:53;;;;;;;4.25;1.60;;;;;;;;;;4968552;28;20046;-76
2023/09/23 13:51:21;;;;;;;7.28;1.70;;;;;;;;;;4971168;28;20109;-75
2023/09/23 13:53:47;;;;;;;5.72;1.73;;;;;;;;;;4972610;28;20129;-76
2023/09/23 13:56:13;;;;;;;7.88;2.42;;;;;;;;;;4971770;28;20047;-76
2023/09/23 13:58:39;;;;;;;4.97;1.80;;;;;;;;;;4972649;28;20042;-76
2023/09/23 14:01:06;;;;;;;6.45;1.70;;;;;;;;;;4971020;28;20493;-77
2023/09/23 14:03:34;;;;;;;4.70;1.35;;;;;;;;;;4971877;28;20401;-77
2023/09/23 14:06:00;;;;;;;7.43;1.58;;;;;;;;;;4973456;28;20050;-76
2023/09/23 14:08:26;;;;;;;4.80;1.40;;;;;;;;;;4973204;28;20039;-76
2023/09/23 14:10:55;;;;;;;6.43;1.35;;;;;;;;;;4971176;28;20086;-76
2023/09/23 14:13:22;;;;;;;5.32;1.40;;;;;;;;;;4968712;28;20115;-76
2023/09/23 14:15:48;;;;;;;3.63;1.10;;;;;;;;;;4956323;28;20058;-78
2023/09/23 14:18:14;;;;;;;5.07;1.70;;;;;;;;;;4972546;28;20079;-79
2023/09/23 14:20:44;;;;;;;6.10;1.45;;;;;;;;;;4940751;28;20421;-79
2023/09/23 14:23:13;;;;;;;3.92;1.42;;;;;;;;;;4952303;28;20122;-79
2023/09/23 14:25:39;;;;;;;5.43;1.67;;;;;;;;;;4957161;28;20048;-79
2023/09/23 14:28:05;;;;;;;7.35;2.40;;;;;;;;;;4943248;29;20055;-79
2023/09/23 14:30:31;;;;;;;5.32;1.70;;;;;;;;;;4937315;29;20039;-79
2023/09/23 14:32:58;;;;;;;4.13;1.60;;;;;;;;;;4951196;28;20182;-79